Portada
METAR-TAF:

METAR-TAF

Aeroports :

Walnut Ridge, Arkansas, Estats Units d'Amèrica

latitud: 36-08N, longitud: 090-55W, altitud: 83 m

Observació

L'informe es va fer fa 1 hora i 1 minuts, a les 11:56 UTC
Vent 6 kt del Nord
Temperatura 16°C
Humitat 82%
Pressió 1023 hPa
Visibilitat: 16.1 km
Cel clar

METAR: KARG 301156Z AUTO 35006KT 10SM CLR 16/13 A3020 RMK AO2 SLP226 T01610128 10178 20144 53013

Hora: 07:57 (12:57 UTC)


TAF: manca

Observacions i pronòstics meteorològics de més de 4000 aeroports (METAR i TAF).

Les estacions disponibles són els punts grocs i vermells al mapa.

Posi el ratolí al punt desitjat per veure el nom de l'estació.

Feu clic per veure les observacions i els pronòstics meteorològics.

Per canviar el mapa: feu clic els botons verds amb una creu de color negre per apropar; al botó verd amb un guió per allunyar la imatge; o en les fletxes verdes per a mapes adjacents.


METAR-TAF: